createdAt,value
2018-07-01T00:00:21.730Z,0.00
2018-07-01T00:01:21.658Z,0.00
2018-07-01T00:03:14.431Z,0.00
2018-07-01T00:04:14.365Z,0.00
2018-07-01T00:06:07.151Z,0.00
2018-07-01T00:07:07.082Z,0.00
2018-07-01T00:08:59.884Z,0.00
2018-07-01T00:09:59.803Z,0.00
2018-07-01T00:11:52.571Z,0.00
2018-07-01T00:12:52.511Z,0.00
2018-07-01T00:14:45.284Z,0.00
2018-07-01T00:15:45.215Z,0.00
2018-07-01T00:17:37.969Z,0.00
2018-07-01T00:18:37.908Z,0.00
2018-07-01T00:20:30.697Z,0.00
2018-07-01T00:21:30.629Z,0.00
2018-07-01T00:23:23.393Z,0.00
2018-07-01T00:24:23.329Z,0.00
2018-07-01T00:26:16.117Z,0.00
2018-07-01T00:27:16.041Z,0.00
2018-07-01T00:29:08.823Z,0.00
2018-07-01T00:30:08.746Z,0.00
2018-07-01T00:32:01.526Z,0.00
2018-07-01T00:33:01.462Z,0.00
2018-07-01T00:34:54.241Z,0.00
2018-07-01T00:35:54.169Z,0.00
2018-07-01T00:37:46.931Z,0.00
2018-07-01T00:38:46.871Z,0.00
2018-07-01T00:40:39.668Z,0.00
2018-07-01T00:41:39.580Z,0.00
2018-07-01T00:43:32.354Z,0.00
2018-07-01T00:44:32.292Z,0.00
2018-07-01T00:46:25.071Z,0.00
2018-07-01T00:47:24.987Z,0.00
2018-07-01T00:49:17.767Z,0.00
2018-07-01T00:50:17.703Z,0.00
2018-07-01T00:52:10.494Z,0.00
2018-07-01T00:53:10.420Z,0.00
2018-07-01T00:55:03.211Z,0.00
2018-07-01T00:56:03.133Z,0.00
2018-07-01T00:57:55.908Z,0.00
2018-07-01T00:58:55.841Z,0.00
2018-07-01T01:00:48.620Z,0.00
2018-07-01T01:01:48.538Z,0.00
2018-07-01T01:03:41.319Z,0.00
2018-07-01T01:04:41.261Z,0.00
2018-07-01T01:06:34.028Z,0.00
2018-07-01T01:07:33.954Z,0.00
2018-07-01T01:09:26.728Z,0.00
2018-07-01T01:10:26.657Z,0.00
2018-07-01T01:12:19.445Z,0.00
2018-07-01T01:13:19.367Z,0.00
2018-07-01T01:15:12.159Z,0.00
2018-07-01T01:16:12.077Z,0.00
2018-07-01T01:18:04.842Z,0.00
2018-07-01T01:19:04.783Z,0.00
2018-07-01T01:20:57.568Z,0.00
2018-07-01T01:21:57.498Z,0.00
2018-07-01T01:23:50.276Z,0.00
2018-07-01T01:24:50.216Z,0.00
2018-07-01T01:26:43.025Z,0.00
2018-07-01T01:27:42.954Z,0.00
2018-07-01T01:29:35.711Z,0.00
2018-07-01T01:30:35.651Z,0.00
2018-07-01T01:32:28.426Z,0.00
2018-07-01T01:33:28.353Z,0.00
2018-07-01T01:35:21.174Z,0.00
2018-07-01T01:36:21.081Z,0.00
2018-07-01T01:38:13.838Z,0.00
2018-07-01T01:39:13.778Z,0.00
2018-07-01T01:41:06.546Z,0.00
2018-07-01T01:42:06.479Z,0.00
2018-07-01T01:43:59.249Z,0.00
2018-07-01T01:44:59.183Z,0.00
2018-07-01T01:46:51.989Z,0.00
2018-07-01T01:47:51.912Z,0.00
2018-07-01T01:49:44.672Z,0.00
2018-07-01T01:50:44.608Z,0.00
2018-07-01T01:52:37.374Z,0.00
2018-07-01T01:53:37.302Z,0.00
2018-07-01T01:55:30.069Z,0.00
2018-07-01T01:56:30.008Z,0.00
2018-07-01T01:58:22.788Z,0.00
2018-07-01T01:59:22.710Z,0.00
2018-07-01T02:01:15.493Z,0.00
2018-07-01T02:02:15.432Z,0.00
2018-07-01T02:04:08.193Z,0.00
2018-07-01T02:05:08.119Z,0.00
2018-07-01T02:07:00.900Z,0.00
2018-07-01T02:08:00.826Z,0.00
2018-07-01T02:09:53.591Z,0.00
2018-07-01T02:10:53.553Z,0.00
2018-07-01T02:12:46.297Z,0.00
2018-07-01T02:13:46.226Z,0.00
2018-07-01T02:15:38.984Z,4.00
2018-07-01T02:16:38.920Z,0.00
2018-07-01T02:18:31.705Z,0.00
2018-07-01T02:19:31.622Z,0.00
2018-07-01T02:21:24.401Z,4.00
2018-07-01T02:22:24.332Z,0.00
2018-07-01T02:24:17.110Z,0.00
2018-07-01T02:25:17.032Z,4.00
2018-07-01T02:27:09.803Z,0.00
2018-07-01T02:28:09.728Z,4.00
2018-07-01T02:30:02.517Z,0.00
2018-07-01T02:31:02.441Z,4.00
2018-07-01T02:32:55.218Z,4.00
2018-07-01T02:33:55.139Z,4.00
2018-07-01T02:35:47.916Z,4.00
2018-07-01T02:36:47.843Z,4.00
2018-07-01T02:38:40.617Z,4.00
2018-07-01T02:39:40.551Z,4.00
2018-07-01T02:41:33.317Z,4.00
2018-07-01T02:42:33.267Z,4.00
2018-07-01T02:44:26.035Z,4.00
2018-07-01T02:45:25.955Z,8.00
2018-07-01T02:47:18.732Z,8.00
2018-07-01T02:48:18.669Z,8.00
2018-07-01T02:50:11.448Z,12.00
2018-07-01T02:51:11.380Z,12.00
2018-07-01T02:53:04.144Z,12.00
2018-07-01T02:54:04.068Z,12.00
2018-07-01T02:55:56.847Z,12.00
2018-07-01T02:56:56.774Z,16.00
2018-07-01T02:58:49.567Z,20.00
2018-07-01T02:59:49.478Z,16.00
2018-07-01T03:01:42.255Z,20.00
2018-07-01T03:02:42.211Z,20.00
2018-07-01T03:04:35.017Z,20.00
2018-07-01T03:05:34.905Z,24.00
2018-07-01T03:07:27.683Z,24.00
2018-07-01T03:08:27.615Z,28.00
2018-07-01T03:10:20.411Z,28.00
2018-07-01T03:11:20.315Z,28.00
2018-07-01T03:13:13.113Z,32.00
2018-07-01T03:14:13.027Z,32.00
2018-07-01T03:16:05.792Z,32.00
2018-07-01T03:17:05.730Z,36.00
2018-07-01T03:18:58.502Z,36.00
2018-07-01T03:19:58.430Z,36.00
2018-07-01T03:21:51.206Z,36.00
2018-07-01T03:22:51.141Z,40.00
2018-07-01T03:24:43.917Z,44.00
2018-07-01T03:25:43.834Z,40.00
2018-07-01T03:27:36.602Z,44.00
2018-07-01T03:28:36.536Z,48.00
2018-07-01T03:30:29.322Z,48.00
2018-07-01T03:31:29.241Z,48.00
2018-07-01T03:33:22.016Z,48.00
2018-07-01T03:34:21.949Z,52.00
2018-07-01T03:36:14.734Z,52.00
2018-07-01T03:37:14.659Z,52.00
2018-07-01T03:39:07.432Z,52.00
2018-07-01T03:40:07.357Z,56.00
2018-07-01T03:42:00.128Z,60.00
2018-07-01T03:43:00.070Z,56.00
2018-07-01T03:44:52.842Z,60.00
2018-07-01T03:45:52.763Z,60.00
2018-07-01T03:47:45.527Z,64.00
2018-07-01T03:48:45.459Z,64.00
2018-07-01T03:50:38.257Z,68.00
2018-07-01T03:51:38.166Z,64.00
2018-07-01T03:53:30.984Z,68.00
2018-07-01T03:54:30.912Z,68.00
2018-07-01T03:56:23.704Z,72.00
2018-07-01T03:57:23.613Z,72.00
2018-07-01T03:59:16.394Z,72.00
2018-07-01T04:00:16.320Z,76.00
2018-07-01T04:02:09.108Z,76.00
2018-07-01T04:03:09.037Z,76.00
2018-07-01T04:05:01.815Z,76.00
2018-07-01T04:06:01.741Z,80.00
2018-07-01T04:07:54.520Z,80.00
2018-07-01T04:08:54.511Z,80.00
2018-07-01T04:10:47.235Z,80.00
2018-07-01T04:11:47.167Z,80.00
2018-07-01T04:13:39.934Z,84.00
2018-07-01T04:14:39.882Z,84.00
2018-07-01T04:16:32.685Z,88.00
2018-07-01T04:17:32.575Z,88.00
2018-07-01T04:19:25.401Z,88.00
2018-07-01T04:20:25.282Z,88.00
2018-07-01T04:22:18.109Z,92.00
2018-07-01T04:23:17.977Z,92.00
2018-07-01T04:25:10.768Z,96.00
2018-07-01T04:26:10.712Z,100.00
2018-07-01T04:28:03.437Z,100.00
2018-07-01T04:29:03.381Z,100.00
2018-07-01T04:30:56.362Z,104.00
2018-07-01T04:31:56.090Z,108.00
2018-07-01T04:33:49.456Z,108.00
2018-07-01T04:34:48.784Z,108.00
2018-07-01T04:36:41.572Z,112.00
2018-07-01T04:37:41.687Z,112.00
2018-07-01T04:39:34.265Z,112.00
2018-07-01T04:40:34.202Z,116.00
2018-07-01T04:42:26.993Z,116.00
2018-07-01T04:43:26.935Z,116.00
2018-07-01T04:45:19.715Z,120.00
2018-07-01T04:46:19.618Z,120.00
2018-07-01T04:48:12.463Z,120.00
2018-07-01T04:49:12.348Z,132.00
2018-07-01T04:51:05.308Z,356.00
2018-07-01T04:52:05.237Z,516.00
2018-07-01T04:53:58.017Z,724.00
2018-07-01T04:54:58.056Z,784.00
2018-07-01T04:56:50.919Z,828.00
2018-07-01T04:57:50.845Z,832.00
2018-07-01T04:59:43.630Z,872.00
2018-07-01T05:00:43.546Z,888.00
2018-07-01T05:02:36.344Z,920.00
2018-07-01T05:03:36.257Z,932.00
2018-07-01T05:05:29.022Z,952.00
2018-07-01T05:06:28.951Z,960.00
2018-07-01T05:08:21.723Z,992.00
2018-07-01T05:09:21.651Z,996.00
2018-07-01T05:11:14.450Z,1024.00
2018-07-01T05:12:14.355Z,1024.00
2018-07-01T05:14:07.145Z,1032.00
2018-07-01T05:15:07.066Z,1028.00
2018-07-01T05:16:59.906Z,1056.00
2018-07-01T05:17:59.779Z,1060.00
2018-07-01T05:19:52.563Z,1076.00
2018-07-01T05:20:52.489Z,1084.00
2018-07-01T05:22:45.323Z,1124.00
2018-07-01T05:23:45.218Z,1108.00
2018-07-01T05:25:37.980Z,1112.00
2018-07-01T05:26:37.920Z,1128.00
2018-07-01T05:28:30.713Z,1168.00
2018-07-01T05:29:30.644Z,1188.00
2018-07-01T05:31:23.459Z,1220.00
2018-07-01T05:32:23.362Z,1280.00
2018-07-01T05:34:16.135Z,1312.00
2018-07-01T05:35:16.077Z,1328.00
2018-07-01T05:37:08.872Z,1328.00
2018-07-01T05:38:08.792Z,1348.00
2018-07-01T05:40:01.576Z,1392.00
2018-07-01T05:41:01.513Z,1424.00
2018-07-01T05:42:54.296Z,1516.00
2018-07-01T05:43:54.227Z,1544.00
2018-07-01T05:45:46.998Z,1600.00
2018-07-01T05:46:46.941Z,1628.00
2018-07-01T05:48:39.729Z,1680.00
2018-07-01T05:49:39.695Z,1708.00
2018-07-01T05:51:32.463Z,1732.00
2018-07-01T05:52:32.377Z,1720.00
2018-07-01T05:54:25.177Z,1752.00
2018-07-01T05:55:25.104Z,1768.00
2018-07-01T05:57:17.899Z,1792.00
2018-07-01T05:58:17.825Z,1840.00
2018-07-01T06:00:10.609Z,1972.00
2018-07-01T06:01:10.551Z,1944.00
2018-07-01T06:03:03.344Z,1936.00
2018-07-01T06:04:03.271Z,1960.00
2018-07-01T06:05:56.060Z,2028.00
2018-07-01T06:06:55.998Z,2076.00
2018-07-01T06:08:48.907Z,2188.00
2018-07-01T06:09:48.723Z,2488.00
2018-07-01T06:11:41.507Z,2264.00
2018-07-01T06:12:41.451Z,2300.00
2018-07-01T06:14:34.259Z,2356.00
2018-07-01T06:15:34.182Z,2376.00
2018-07-01T06:17:26.966Z,2440.00
2018-07-01T06:18:26.900Z,2464.00
2018-07-01T06:20:19.703Z,2496.00
2018-07-01T06:21:19.699Z,2496.00
2018-07-01T06:23:12.433Z,2536.00
2018-07-01T06:24:12.368Z,2576.00
2018-07-01T06:26:05.139Z,2608.00
2018-07-01T06:27:05.085Z,2644.00
2018-07-01T06:28:57.876Z,2656.00
2018-07-01T06:29:57.810Z,2676.00
2018-07-01T06:31:50.592Z,2700.00
2018-07-01T06:32:50.591Z,2708.00
2018-07-01T06:34:43.328Z,2816.00
2018-07-01T06:35:43.258Z,2904.00
2018-07-01T06:37:36.042Z,1160.00
2018-07-01T06:38:35.977Z,2832.00
2018-07-01T06:40:28.800Z,3024.00
2018-07-01T06:41:28.732Z,2972.00
2018-07-01T06:43:21.526Z,3152.00
2018-07-01T06:44:21.453Z,3332.00
2018-07-01T06:46:14.240Z,976.00
2018-07-01T06:47:14.182Z,804.00
2018-07-01T06:49:06.995Z,824.00
2018-07-01T06:50:06.901Z,992.00
2018-07-01T06:51:59.684Z,1212.00
2018-07-01T06:52:59.627Z,1108.00
2018-07-01T06:54:52.424Z,3360.00
2018-07-01T06:55:52.345Z,6476.00
2018-07-01T06:57:45.155Z,1128.00
2018-07-01T06:58:45.102Z,1032.00
2018-07-01T07:00:37.906Z,4336.00
2018-07-01T07:01:37.839Z,2992.00
2018-07-01T07:03:30.617Z,2320.00
2018-07-01T07:04:30.541Z,2960.00
2018-07-01T07:06:23.337Z,10848.00
2018-07-01T07:07:23.268Z,10432.00
2018-07-01T07:09:16.069Z,11168.00
2018-07-01T07:10:15.997Z,12288.00
2018-07-01T07:12:08.769Z,11968.00
2018-07-01T07:13:08.719Z,12416.00
2018-07-01T07:15:01.515Z,13312.00
2018-07-01T07:16:01.448Z,12736.00
2018-07-01T07:17:54.216Z,12608.00
2018-07-01T07:18:54.156Z,13152.00
2018-07-01T07:20:46.951Z,14656.00
2018-07-01T07:21:46.880Z,14656.00
2018-07-01T07:23:39.699Z,1688.00
2018-07-01T07:24:39.605Z,612.00
2018-07-01T07:26:32.393Z,14784.00
2018-07-01T07:27:32.330Z,14784.00
2018-07-01T07:29:25.141Z,348.00
2018-07-01T07:30:25.074Z,300.00
2018-07-01T07:32:17.866Z,348.00
2018-07-01T07:33:17.803Z,2340.00
2018-07-01T07:35:10.603Z,1340.00
2018-07-01T07:36:10.530Z,696.00
2018-07-01T07:38:03.298Z,3972.00
2018-07-01T07:39:03.244Z,3912.00
2018-07-01T07:40:56.025Z,2292.00
2018-07-01T07:41:55.953Z,4044.00
2018-07-01T07:43:48.731Z,4112.00
2018-07-01T07:44:48.678Z,4212.00
2018-07-01T07:46:41.488Z,852.00
2018-07-01T07:47:41.401Z,3768.00
2018-07-01T07:49:34.196Z,4352.00
2018-07-01T07:50:34.120Z,4252.00
2018-07-01T07:52:26.905Z,4236.00
2018-07-01T07:53:26.849Z,4168.00
2018-07-01T07:55:19.636Z,4092.00
2018-07-01T07:56:19.563Z,4116.00
2018-07-01T07:58:12.356Z,4088.00
2018-07-01T07:59:12.299Z,4140.00
2018-07-01T08:01:05.084Z,3972.00
2018-07-01T08:02:05.072Z,3912.00
2018-07-01T08:03:57.810Z,3776.00
2018-07-01T08:04:57.756Z,3736.00
2018-07-01T08:06:50.613Z,3196.00
2018-07-01T08:07:50.548Z,3748.00
2018-07-01T08:09:43.390Z,3560.00
2018-07-01T08:10:43.268Z,3520.00
2018-07-01T08:12:36.079Z,3448.00
2018-07-01T08:13:36.027Z,3548.00
2018-07-01T08:15:28.821Z,388.00
2018-07-01T08:16:28.749Z,3368.00
2018-07-01T08:18:21.524Z,3296.00
2018-07-01T08:19:21.472Z,3288.00
2018-07-01T08:21:14.268Z,3288.00
2018-07-01T08:22:14.199Z,3184.00
2018-07-01T08:24:06.976Z,3388.00
2018-07-01T08:25:06.918Z,3324.00
2018-07-01T08:26:59.706Z,380.00
2018-07-01T08:27:59.636Z,356.00
2018-07-01T08:29:52.420Z,1392.00
2018-07-01T08:30:52.376Z,3312.00
2018-07-01T08:32:45.149Z,3252.00
2018-07-01T08:33:45.078Z,3132.00
2018-07-01T08:35:37.886Z,320.00
2018-07-01T08:36:37.822Z,320.00
2018-07-01T08:38:30.581Z,304.00
2018-07-01T08:39:30.532Z,524.00
2018-07-01T08:41:23.344Z,3136.00
2018-07-01T08:42:23.278Z,3332.00
2018-07-01T08:44:16.057Z,3280.00
2018-07-01T08:45:15.998Z,3308.00
2018-07-01T08:47:08.785Z,3448.00
2018-07-01T08:48:08.718Z,3384.00
2018-07-01T08:50:01.501Z,3360.00
2018-07-01T08:51:01.438Z,3368.00
2018-07-01T08:52:54.223Z,3432.00
2018-07-01T08:53:54.152Z,3464.00
2018-07-01T08:55:46.949Z,3504.00
2018-07-01T08:56:46.883Z,3576.00
2018-07-01T08:58:39.665Z,3716.00
2018-07-01T08:59:39.608Z,3856.00
2018-07-01T09:01:32.405Z,3128.00
2018-07-01T09:02:32.340Z,3200.00
2018-07-01T09:04:25.152Z,4040.00
2018-07-01T09:05:25.063Z,4200.00
2018-07-01T09:07:17.853Z,4364.00
2018-07-01T09:08:17.780Z,4640.00
2018-07-01T09:10:10.569Z,4668.00
2018-07-01T09:11:10.503Z,4880.00
2018-07-01T09:13:03.302Z,2792.00
2018-07-01T09:14:03.228Z,928.00
2018-07-01T09:15:56.019Z,796.00
2018-07-01T09:16:55.972Z,6048.00
2018-07-01T09:18:48.747Z,532.00
2018-07-01T09:19:48.677Z,400.00
2018-07-01T09:21:41.480Z,7128.00
2018-07-01T09:22:41.420Z,9736.00
2018-07-01T09:24:34.201Z,15648.00
2018-07-01T09:25:34.138Z,7656.00
2018-07-01T09:27:26.965Z,4224.00
2018-07-01T09:28:26.868Z,4124.00
2018-07-01T09:30:19.657Z,3932.00
2018-07-01T09:31:19.606Z,3860.00
2018-07-01T09:33:12.400Z,1488.00
2018-07-01T09:34:12.330Z,1088.00
2018-07-01T09:36:05.117Z,836.00
2018-07-01T09:37:05.054Z,3548.00
2018-07-01T09:38:57.837Z,500.00
2018-07-01T09:39:57.775Z,3184.00
2018-07-01T09:41:50.585Z,676.00
2018-07-01T09:42:50.504Z,2836.00
2018-07-01T09:44:43.291Z,2632.00
2018-07-01T09:45:43.239Z,2500.00
2018-07-01T09:47:36.030Z,2372.00
2018-07-01T09:48:35.961Z,2320.00
2018-07-01T09:50:28.907Z,2252.00
2018-07-01T09:51:28.683Z,2244.00
2018-07-01T09:53:21.477Z,2248.00
2018-07-01T09:54:21.396Z,2248.00
2018-07-01T09:56:14.177Z,632.00
2018-07-01T09:57:14.120Z,2288.00
2018-07-01T09:59:06.925Z,2316.00
2018-07-01T10:00:06.854Z,2448.00
2018-07-01T10:01:59.663Z,1548.00
2018-07-01T10:02:59.591Z,1960.00
2018-07-01T10:04:52.380Z,2708.00
2018-07-01T10:05:52.355Z,908.00
2018-07-01T10:07:45.109Z,840.00
2018-07-01T10:08:45.044Z,860.00
2018-07-01T10:10:37.823Z,1060.00
2018-07-01T10:11:37.767Z,1000.00
2018-07-01T10:13:30.551Z,2164.00
2018-07-01T10:14:30.485Z,1428.00
2018-07-01T10:16:23.274Z,7820.00
2018-07-01T10:17:23.214Z,24416.00
2018-07-01T10:19:15.999Z,32384.00
2018-07-01T10:20:15.934Z,30688.00
2018-07-01T10:22:08.728Z,2460.00
2018-07-01T10:23:08.678Z,1232.00
2018-07-01T10:25:01.488Z,2392.00
2018-07-01T10:26:01.390Z,2384.00
2018-07-01T10:27:54.189Z,2488.00
2018-07-01T10:28:54.114Z,2564.00
2018-07-01T10:30:46.898Z,2300.00
2018-07-01T10:31:46.842Z,2104.00
2018-07-01T10:33:39.648Z,1692.00
2018-07-01T10:34:39.580Z,1908.00
2018-07-01T10:36:32.368Z,1900.00
2018-07-01T10:37:32.310Z,1900.00
2018-07-01T10:39:25.103Z,1968.00
2018-07-01T10:40:25.035Z,2012.00
2018-07-01T10:42:17.861Z,1972.00
2018-07-01T10:43:17.804Z,1968.00
2018-07-01T10:45:10.642Z,2004.00
2018-07-01T10:46:10.604Z,2060.00
2018-07-01T10:48:03.377Z,2008.00
2018-07-01T10:49:03.298Z,1996.00
2018-07-01T10:50:56.138Z,852.00
2018-07-01T10:51:56.044Z,1096.00
2018-07-01T10:53:48.852Z,480.00
2018-07-01T10:54:48.777Z,584.00
2018-07-01T10:56:41.603Z,1252.00
2018-07-01T10:57:41.593Z,664.00
2018-07-01T10:59:34.320Z,2164.00
2018-07-01T11:00:34.268Z,2500.00
2018-07-01T11:02:27.087Z,2564.00
2018-07-01T11:03:27.017Z,2500.00
2018-07-01T11:05:19.863Z,832.00
2018-07-01T11:06:19.938Z,852.00
2018-07-01T11:08:12.585Z,748.00
2018-07-01T11:09:12.510Z,612.00
2018-07-01T11:11:05.335Z,488.00
2018-07-01T11:12:05.249Z,468.00
2018-07-01T11:13:58.047Z,512.00
2018-07-01T11:14:57.974Z,524.00
2018-07-01T11:16:50.778Z,540.00
2018-07-01T11:17:50.720Z,1728.00
2018-07-01T11:19:43.608Z,1664.00
2018-07-01T11:20:43.486Z,1540.00
2018-07-01T11:22:36.297Z,1472.00
2018-07-01T11:23:36.204Z,1336.00
2018-07-01T11:25:29.054Z,1280.00
2018-07-01T11:26:28.998Z,1224.00
2018-07-01T11:28:21.775Z,1264.00
2018-07-01T11:29:21.702Z,1288.00
2018-07-01T11:31:14.500Z,1360.00
2018-07-01T11:32:14.431Z,344.00
2018-07-01T11:34:07.213Z,384.00
2018-07-01T11:35:07.156Z,1272.00
2018-07-01T11:36:59.926Z,496.00
2018-07-01T11:37:59.869Z,420.00
2018-07-01T11:39:52.653Z,1412.00
2018-07-01T11:40:52.578Z,1524.00
2018-07-01T11:42:45.378Z,508.00
2018-07-01T11:43:45.316Z,532.00
2018-07-01T11:45:38.168Z,616.00
2018-07-01T11:46:38.041Z,660.00
2018-07-01T11:48:30.837Z,608.00
2018-07-01T11:49:30.775Z,600.00
2018-07-01T11:51:23.583Z,816.00
2018-07-01T11:52:23.507Z,1136.00
2018-07-01T11:54:16.292Z,1116.00
2018-07-01T11:55:16.253Z,1104.00
2018-07-01T11:57:08.999Z,1096.00
2018-07-01T11:58:08.964Z,1084.00
2018-07-01T12:00:01.824Z,824.00
2018-07-01T12:01:01.669Z,792.00
2018-07-01T12:02:54.485Z,536.00
2018-07-01T12:03:54.412Z,424.00
2018-07-01T12:05:47.189Z,692.00
2018-07-01T12:06:47.116Z,492.00
2018-07-01T12:08:39.912Z,708.00
2018-07-01T12:09:39.842Z,808.00
2018-07-01T12:11:32.652Z,760.00
2018-07-01T12:12:32.587Z,764.00
2018-07-01T12:14:25.407Z,836.00
2018-07-01T12:15:25.345Z,792.00
2018-07-01T12:17:18.139Z,788.00
2018-07-01T12:18:18.074Z,748.00
2018-07-01T12:20:10.898Z,728.00
2018-07-01T12:21:10.829Z,676.00
2018-07-01T12:23:03.618Z,632.00
2018-07-01T12:24:03.548Z,588.00
2018-07-01T12:25:56.336Z,640.00
2018-07-01T12:26:56.270Z,724.00
2018-07-01T12:28:49.085Z,816.00
2018-07-01T12:29:48.993Z,792.00
2018-07-01T12:31:41.781Z,724.00
2018-07-01T12:32:41.715Z,752.00
2018-07-01T12:34:34.523Z,752.00
2018-07-01T12:35:34.457Z,672.00
2018-07-01T12:37:27.246Z,664.00
2018-07-01T12:38:27.171Z,652.00
2018-07-01T12:40:20.163Z,620.00
2018-07-01T12:41:20.098Z,648.00
2018-07-01T12:43:12.887Z,688.00
2018-07-01T12:44:12.830Z,720.00
2018-07-01T12:46:05.632Z,552.00
2018-07-01T12:47:05.557Z,504.00
2018-07-01T12:48:58.339Z,368.00
2018-07-01T12:49:58.274Z,348.00
2018-07-01T12:51:51.081Z,308.00
2018-07-01T12:52:51.015Z,320.00
2018-07-01T12:54:43.900Z,372.00
2018-07-01T12:55:43.795Z,416.00
2018-07-01T12:57:36.617Z,540.00
2018-07-01T12:58:36.547Z,608.00
2018-07-01T13:00:29.317Z,676.00
2018-07-01T13:01:29.243Z,660.00
2018-07-01T13:03:22.034Z,588.00
2018-07-01T13:04:21.969Z,488.00
2018-07-01T13:06:14.765Z,380.00
2018-07-01T13:07:14.695Z,348.00
2018-07-01T13:09:07.490Z,320.00
2018-07-01T13:10:07.414Z,320.00
2018-07-01T13:12:00.334Z,308.00
2018-07-01T13:13:00.168Z,300.00
2018-07-01T13:14:52.983Z,312.00
2018-07-01T13:15:52.976Z,328.00
2018-07-01T13:17:45.837Z,392.00
2018-07-01T13:18:45.756Z,452.00
2018-07-01T13:20:38.519Z,548.00
2018-07-01T13:21:38.466Z,688.00
2018-07-01T13:23:31.241Z,628.00
2018-07-01T13:24:31.167Z,584.00
2018-07-01T13:26:23.959Z,448.00
2018-07-01T13:27:23.891Z,364.00
2018-07-01T13:29:16.684Z,344.00
2018-07-01T13:30:16.808Z,360.00
2018-07-01T13:32:09.415Z,324.00
2018-07-01T13:33:09.345Z,312.00
2018-07-01T13:35:02.161Z,292.00
2018-07-01T13:36:02.100Z,292.00
2018-07-01T13:37:54.881Z,332.00
2018-07-01T13:38:54.806Z,356.00
2018-07-01T13:40:47.583Z,396.00
2018-07-01T13:41:47.538Z,392.00
2018-07-01T13:43:40.545Z,440.00
2018-07-01T13:44:40.468Z,412.00
2018-07-01T13:46:33.782Z,448.00
2018-07-01T13:47:33.504Z,484.00
2018-07-01T13:49:26.224Z,568.00
2018-07-01T13:50:26.166Z,532.00
2018-07-01T13:52:18.949Z,504.00
2018-07-01T13:53:18.880Z,512.00
2018-07-01T13:55:11.677Z,432.00
2018-07-01T13:56:11.609Z,424.00
2018-07-01T13:58:04.465Z,428.00
2018-07-01T13:59:04.348Z,452.00
2018-07-01T14:00:57.144Z,408.00
2018-07-01T14:01:57.067Z,320.00
2018-07-01T14:03:49.880Z,316.00
2018-07-01T14:04:49.810Z,320.00
2018-07-01T14:06:42.663Z,352.00
2018-07-01T14:07:42.522Z,332.00
2018-07-01T14:09:35.414Z,316.00
2018-07-01T14:10:35.261Z,336.00
2018-07-01T14:12:28.060Z,404.00
2018-07-01T14:13:27.988Z,376.00
2018-07-01T14:15:20.779Z,324.00
2018-07-01T14:16:20.703Z,340.00
2018-07-01T14:18:13.502Z,320.00
2018-07-01T14:19:13.429Z,304.00
2018-07-01T14:21:06.246Z,288.00
2018-07-01T14:22:06.189Z,260.00
2018-07-01T14:23:58.983Z,292.00
2018-07-01T14:24:58.897Z,260.00
2018-07-01T14:26:51.673Z,244.00
2018-07-01T14:27:51.609Z,236.00
2018-07-01T14:29:44.403Z,248.00
2018-07-01T14:30:44.316Z,268.00
2018-07-01T14:32:37.111Z,288.00
2018-07-01T14:33:37.033Z,292.00
2018-07-01T14:35:29.816Z,352.00
2018-07-01T14:36:29.751Z,368.00
2018-07-01T14:38:22.561Z,452.00
2018-07-01T14:39:22.473Z,496.00
2018-07-01T14:41:15.265Z,456.00
2018-07-01T14:42:15.202Z,380.00
2018-07-01T14:44:07.992Z,324.00
2018-07-01T14:45:07.942Z,324.00
2018-07-01T14:47:00.724Z,332.00
2018-07-01T14:48:00.650Z,328.00
2018-07-01T14:49:53.447Z,308.00
2018-07-01T14:50:53.374Z,280.00
2018-07-01T14:52:46.211Z,244.00
2018-07-01T14:53:46.115Z,284.00
2018-07-01T14:55:38.890Z,272.00
2018-07-01T14:56:38.821Z,276.00
2018-07-01T14:58:31.624Z,268.00
2018-07-01T14:59:31.547Z,276.00
2018-07-01T15:01:24.387Z,296.00
2018-07-01T15:02:24.257Z,308.00
2018-07-01T15:04:17.101Z,344.00
2018-07-01T15:05:17.012Z,380.00
2018-07-01T15:07:09.792Z,468.00
2018-07-01T15:08:09.729Z,392.00
2018-07-01T15:10:02.567Z,328.00
2018-07-01T15:11:02.542Z,256.00
2018-07-01T15:12:55.275Z,216.00
2018-07-01T15:13:55.205Z,220.00
2018-07-01T15:15:47.990Z,228.00
2018-07-01T15:16:47.914Z,236.00
2018-07-01T15:18:40.718Z,272.00
2018-07-01T15:19:40.648Z,296.00
2018-07-01T15:21:33.412Z,340.00
2018-07-01T15:22:33.343Z,368.00
2018-07-01T15:24:26.165Z,396.00
2018-07-01T15:25:26.064Z,404.00
2018-07-01T15:27:18.867Z,384.00
2018-07-01T15:28:18.795Z,356.00
2018-07-01T15:30:11.601Z,320.00
2018-07-01T15:31:11.526Z,304.00
2018-07-01T15:33:04.364Z,232.00
2018-07-01T15:34:04.288Z,292.00
2018-07-01T15:35:57.118Z,216.00
2018-07-01T15:36:57.026Z,176.00
2018-07-01T15:38:49.868Z,192.00
2018-07-01T15:39:49.768Z,184.00
2018-07-01T15:41:42.546Z,172.00
2018-07-01T15:42:42.488Z,172.00
2018-07-01T15:44:35.263Z,172.00
2018-07-01T15:45:35.186Z,176.00
2018-07-01T15:47:27.979Z,184.00
2018-07-01T15:48:27.911Z,188.00
2018-07-01T15:50:20.714Z,200.00
2018-07-01T15:51:20.637Z,208.00
2018-07-01T15:53:13.408Z,236.00
2018-07-01T15:54:13.356Z,260.00
2018-07-01T15:56:06.152Z,280.00
2018-07-01T15:57:06.088Z,284.00
2018-07-01T15:58:58.860Z,308.00
2018-07-01T15:59:58.802Z,284.00
2018-07-01T16:01:51.593Z,248.00
2018-07-01T16:02:51.516Z,192.00
2018-07-01T16:04:44.316Z,128.00
2018-07-01T16:05:44.243Z,112.00
2018-07-01T16:07:37.040Z,152.00
2018-07-01T16:08:36.977Z,144.00
2018-07-01T16:10:29.772Z,152.00
2018-07-01T16:11:29.677Z,144.00
2018-07-01T16:13:22.474Z,152.00
2018-07-01T16:14:22.404Z,148.00
2018-07-01T16:16:15.206Z,144.00
2018-07-01T16:17:15.135Z,140.00
2018-07-01T16:19:07.918Z,140.00
2018-07-01T16:20:07.871Z,140.00
2018-07-01T16:22:00.649Z,140.00
2018-07-01T16:23:00.570Z,140.00
2018-07-01T16:24:53.367Z,148.00
2018-07-01T16:25:53.291Z,152.00
2018-07-01T16:27:46.092Z,148.00
2018-07-01T16:28:46.048Z,148.00
2018-07-01T16:30:38.809Z,140.00
2018-07-01T16:31:38.736Z,140.00
2018-07-01T16:33:31.527Z,140.00
2018-07-01T16:34:31.464Z,140.00
2018-07-01T16:36:24.260Z,140.00
2018-07-01T16:37:24.192Z,136.00
2018-07-01T16:39:16.970Z,140.00
2018-07-01T16:40:16.909Z,136.00
2018-07-01T16:42:09.726Z,132.00
2018-07-01T16:43:09.645Z,132.00
2018-07-01T16:45:02.462Z,132.00
2018-07-01T16:46:02.399Z,132.00
2018-07-01T16:47:55.255Z,128.00
2018-07-01T16:48:55.173Z,124.00
2018-07-01T16:50:47.966Z,120.00
2018-07-01T16:51:47.880Z,120.00
2018-07-01T16:53:40.667Z,120.00
2018-07-01T16:54:40.606Z,120.00
2018-07-01T16:56:33.396Z,120.00
2018-07-01T16:57:33.330Z,120.00
2018-07-01T16:59:26.103Z,116.00
2018-07-01T17:00:26.036Z,116.00
2018-07-01T17:02:18.826Z,112.00
2018-07-01T17:03:18.747Z,120.00
2018-07-01T17:05:11.622Z,112.00
2018-07-01T17:06:11.490Z,112.00
2018-07-01T17:08:04.306Z,108.00
2018-07-01T17:09:04.227Z,104.00
2018-07-01T17:10:57.114Z,92.00
2018-07-01T17:11:56.990Z,92.00
2018-07-01T17:13:49.844Z,92.00
2018-07-01T17:14:49.757Z,92.00
2018-07-01T17:16:42.611Z,132.00
2018-07-01T17:17:42.482Z,104.00
2018-07-01T17:19:35.262Z,108.00
2018-07-01T17:20:35.200Z,132.00
2018-07-01T17:22:28.063Z,120.00
2018-07-01T17:23:27.949Z,108.00
2018-07-01T17:25:20.717Z,108.00
2018-07-01T17:26:20.665Z,96.00
2018-07-01T17:28:13.494Z,100.00
2018-07-01T17:29:13.411Z,100.00
2018-07-01T17:31:06.204Z,100.00
2018-07-01T17:32:06.142Z,100.00
2018-07-01T17:33:58.944Z,100.00
2018-07-01T17:34:58.959Z,100.00
2018-07-01T17:36:51.714Z,96.00
2018-07-01T17:37:51.667Z,96.00
2018-07-01T17:39:44.423Z,96.00
2018-07-01T17:40:44.355Z,96.00
2018-07-01T17:42:37.158Z,92.00
2018-07-01T17:43:37.104Z,92.00
2018-07-01T17:45:29.948Z,92.00
2018-07-01T17:46:29.910Z,88.00
2018-07-01T17:48:22.714Z,88.00
2018-07-01T17:49:22.594Z,88.00
2018-07-01T17:51:15.384Z,88.00
2018-07-01T17:52:15.312Z,88.00
2018-07-01T17:54:08.113Z,96.00
2018-07-01T17:55:08.028Z,96.00
2018-07-01T17:57:00.842Z,88.00
2018-07-01T17:58:00.751Z,88.00
2018-07-01T17:59:53.553Z,84.00